Ευχαριστούμε που συμβάλλετε στη διατήρηση της σελίδας μας.

Thank you for your donations, it really helps to maintain the page.


Στατιστικά Καιρού & Άλλα..









Δείκτης Πυρκαγιάς (FWI)

Καστελόκαμπος Ρίον more information Kastelokampos Rion


Κάμερα Ρομανού more information Romanos Cam


Ραντάρ Κεραυνών more information blitzortung!


Ραντάρ Βροχής more information rain snow radar


Επισκεφθείτε άλλες ιστοσελίδες καιρού μας:

Meteopatras.Eu in
Euweather NetworkMeteopatras.Eu in Euweather Network

Weather CloudWeather Cloud

PWS WeatherPWS Weather

Awekas NetWeather data from station Patra-Ketx

WunderGroundWeather data from station Patra-Ketx




Ιδιοκτησία και Επίβλεψη : Μουλάς Αντρέας

 Πάτρα, Ελλάδα - Γ.Πλάτος : 38°14'21" Β - Γ.Μήκος : 21°45'5" Α - Υψόμετρο : 56μ

Κοντινές Αναφορές METAR

Warning: A non-numeric value encountered in /storage/content/70/1007070/meteopatras.eu/public_html/weather/metar/metarDisplay.php on line 166
   
LGRX - Araxos
Ενημερώθηκε: 26-01-2020 12:50
Κυρίως Συννεφιά  
Κυρίως Συννεφιά  
   Άνεμος: ΝΝΑ 11.1 km/h
Άνεμος: ΝΝΑ 11.1 km/h
Θερμοκρασία: 15°C
Σημείο Δρόσου: 10°C
Υγρασία: 72%
Βαρόμετρο: 1025 hPa
Σύννεφα: Κυρίως Συννεφιά
Ορατότητα: More than 10 km
Λεπτομέρειες Σύννεφου: Μερικώς Νεφελώδης 2000 ft,
Κυρίως Συννεφιά 6000 ft
LGRX 261050Z 15006KT 9999 SCT020 BKN060 15/10 Q1025
LGAD - Andravida
Ενημερώθηκε: 26-01-2020 12:50
Συννεφιά  
Συννεφιά  
   Άνεμος: ΝΑ 14.8 km/h
Άνεμος: ΝΑ 14.8 km/h
Θερμοκρασία: 15°C
Σημείο Δρόσου: 10°C
Υγρασία: 72%
Βαρόμετρο: 1025 hPa
Σύννεφα: Συννεφιά
Ορατότητα: More than 10 km
Λεπτομέρειες Σύννεφου: Κυρίως Συννεφιά 2500 ft,
Συννεφιά 8000 ft
LGAD 261050Z 14008KT 9999 BKN025 OVC080 15/10 Q1025
LGZA - Zakinthos
Ενημερώθηκε: 26-01-2020 12:50
Κυρίως Συννεφιά  
Κυρίως Συννεφιά  
   Άνεμος: ΝΝΑ 20.4 km/h
Άνεμος: ΝΝΑ 20.4 km/h
Θερμοκρασία: 15°C
Σημείο Δρόσου: 9°C
Υγρασία: 68%
Βαρόμετρο: 1025 hPa
Σύννεφα: Κυρίως Συννεφιά
Ορατότητα: More than 10 km
Λεπτομέρειες Σύννεφου: Κυρίως Αίθριος 1800 ft,
Μερικώς Νεφελώδης 2000 ft,
Κυρίως Συννεφιά 7000 ft
LGZA 261050Z 15011KT 9999 FEW018 SCT020 BKN070 15/09 Q1025
LGKF - Kefallinia
Ενημερώθηκε: 26-01-2020 12:50
Κυρίως Συννεφιά  
Κυρίως Συννεφιά  
   Άνεμος: ΑΝΑ 22.2 km/h
Άνεμος: ΑΝΑ 22.2 km/h
Θερμοκρασία: 15°C
Σημείο Δρόσου: 8°C
Υγρασία: 63%
Βαρόμετρο: 1025 hPa
Σύννεφα: Κυρίως Συννεφιά
Ορατότητα: More than 10 km
Λεπτομέρειες Σύννεφου: Κυρίως Αίθριος 1400 ft,
Μερικώς Νεφελώδης 2000 ft,
Κυρίως Συννεφιά 7000 ft
LGKF 261050Z 12012KT 9999 FEW014 SCT020 BKN070 15/08 Q1025
LGPZ - Preveza
Ενημερώθηκε: 26-01-2020 12:50
Μερικώς Νεφελώδης  
Μερικώς Νεφελώδης  
   Άνεμος: ΝΝΑ 13 km/h
Άνεμος: ΝΝΑ 13 km/h
Θερμοκρασία: 16°C
Σημείο Δρόσου: 10°C
Υγρασία: 68%
Βαρόμετρο: 1025 hPa
Σύννεφα: Μερικώς Νεφελώδης
Ορατότητα: More than 10 km
Λεπτομέρειες Σύννεφου: Κυρίως Αίθριος 1800 ft,
Μερικώς Νεφελώδης 2500 ft
LGPZ 261050Z 15007KT 9999 FEW018 SCT025 16/10 Q1025
LGKL - Kalamata
Ενημερώθηκε: 26-01-2020 12:50
Ομίχλη, Συννεφιά  
Ομίχλη, Συννεφιά  
   Άνεμος: Άπνοια
Άνεμος: Άπνοια
Θερμοκρασία: 15°C
Σημείο Δρόσου: 9°C
Υγρασία: 68%
Βαρόμετρο: 1026 hPa
Σύννεφα: Συννεφιά
Ορατότητα: 8 km
Λεπτομέρειες Σύννεφου: Μερικώς Νεφελώδης 3000 ft,
Συννεφιά 8000 ft
LGKL 261050Z 00000KT 8000 4000S BR SCT030 OVC080 15/09 Q1026
LGKR - Kerkyra
Ενημερώθηκε: 26-01-2020 12:50
Κυρίως Συννεφιά  
Κυρίως Συννεφιά  
   Άνεμος: ΝΑ 25.9 km/h
Άνεμος: ΝΑ 25.9 km/h
Θερμοκρασία: 16°C
Σημείο Δρόσου: 11°C
Υγρασία: 72%
Βαρόμετρο: 1023 hPa
Σύννεφα: Κυρίως Συννεφιά
Ορατότητα: More than 10 km
Λεπτομέρειες Σύννεφου: Κυρίως Αίθριος 1600 ft,
Κυρίως Συννεφιά 2500 ft
LGKR 261050Z 14014KT 9999 FEW016 BKN025 16/11 Q1023 NOSIG
LGIO - Iwannina
Ενημερώθηκε: 26-01-2020 12:50
Μερικώς Νεφελώδης  
Μερικώς Νεφελώδης  
   Άνεμος: ΝΑ 13 km/h
Άνεμος: ΝΑ 13 km/h
Θερμοκρασία: 13°C
Σημείο Δρόσου: 5°C
Υγρασία: 59%
Βαρόμετρο: 1024 hPa
Σύννεφα: Μερικώς Νεφελώδης
Ορατότητα: More than 10 km
Λεπτομέρειες Σύννεφου: Κυρίως Αίθριος 2500 ft,
Μερικώς Νεφελώδης 3000 ft
LGIO 261050Z 13007KT 9999 FEW025 SCT030 13/05 Q1024
LGPZ - Leykada
Ενημερώθηκε: 26-01-2020 12:50
Μερικώς Νεφελώδης  
Μερικώς Νεφελώδης  
   Άνεμος: ΝΝΑ 13 km/h
Άνεμος: ΝΝΑ 13 km/h
Θερμοκρασία: 16°C
Σημείο Δρόσου: 10°C
Υγρασία: 68%
Βαρόμετρο: 1025 hPa
Σύννεφα: Μερικώς Νεφελώδης
Ορατότητα: More than 10 km
Λεπτομέρειες Σύννεφου: Κυρίως Αίθριος 1800 ft,
Μερικώς Νεφελώδης 2500 ft
LGPZ 261050Z 15007KT 9999 FEW018 SCT025 16/10 Q1025
LGEL - Elefsina
Ενημερώθηκε: 26-01-2020 12:50
Κυρίως Αίθριος  
Κυρίως Αίθριος  
   Άνεμος: Άπνοια
Άνεμος: Άπνοια
Θερμοκρασία: 14°C
Σημείο Δρόσου: 9°C
Υγρασία: 72%
Βαρόμετρο: 1024 hPa
Σύννεφα: Κυρίως Αίθριος
Ορατότητα: More than 10 km
Λεπτομέρειες Σύννεφου: Κυρίως Αίθριος 2500 ft
LGEL 261050Z 00000KT 9999 FEW025 14/09 Q1024
LGKC - Kythira
Ενημερώθηκε: 26-01-2020 12:50
Κυρίως Συννεφιά  
Κυρίως Συννεφιά  
   Άνεμος: ΝΝΔ 24.1 km/h
Άνεμος: ΝΝΔ 24.1 km/h
Θερμοκρασία: 14°C
Σημείο Δρόσου: 10°C
Υγρασία: 77%
Βαρόμετρο: 1026 hPa
Σύννεφα: Κυρίως Συννεφιά
Ορατότητα: More than 10 km
Λεπτομέρειες Σύννεφου: Κυρίως Αίθριος 1800 ft,
Κυρίως Συννεφιά 2000 ft
LGKC 261050Z 20013KT 9999 FEW018 BKN020 14/10 Q1026
LGIR - Hraklio
Ενημερώθηκε: 26-01-2020 12:50
Αίθριος  
Αίθριος  
   Άνεμος: Νότος 18.5 km/h
Άνεμος: Νότος 18.5 km/h
Θερμοκρασία: 19°C
Σημείο Δρόσου: 10°C
Υγρασία: 56%
Βαρόμετρο: 1026 hPa
Ορατότητα: More than 10 km
Λεπτομέρειες Σύννεφου: Αίθριος
LGIR 261050Z 18010KT CAVOK 19/10 Q1026 NOSIG

Script developed by  Saratoga-weather.org Προσαρμοσμένος για το πρότυπο του  Weerstation Leuven

Μπορείτε να βρείτε πληροφορίες καιρού μας και σε:

European Weather Network

WeatherCloud

Weather Underground

Δύκτιο Σταθμών Ελλάδας

AWEKAS

HAMweather, WeatherForYou, PWS Weather

MeteoPatras.Eu